sensor_id;sensor_type;location;lat;lon;timestamp;pressure;altitude;pressure_sealevel;temperature;humidity
70302;BME280;57706;56.326;43.882;2023-01-28T00:00:08;101342.06;;;-1.79;83.36
70302;BME280;57706;56.326;43.882;2023-01-28T00:02:35;101340.28;;;-1.77;82.28
70302;BME280;57706;56.326;43.882;2023-01-28T00:05:01;101340.66;;;-1.86;82.74
70302;BME280;57706;56.326;43.882;2023-01-28T00:07:29;101341.97;;;-1.98;83.14
70302;BME280;57706;56.326;43.882;2023-01-28T00:09:55;101339.06;;;-1.90;83.86
70302;BME280;57706;56.326;43.882;2023-01-28T00:12:20;101342.06;;;-1.79;83.66
70302;BME280;57706;56.326;43.882;2023-01-28T00:15:05;101345.09;;;-1.68;83.30
70302;BME280;57706;56.326;43.882;2023-01-28T00:17:31;101348.44;;;-1.66;82.98
70302;BME280;57706;56.326;43.882;2023-01-28T00:19:57;101353.47;;;-1.62;83.20
70302;BME280;57706;56.326;43.882;2023-01-28T00:22:23;101348.22;;;-1.59;82.96
70302;BME280;57706;56.326;43.882;2023-01-28T00:24:49;101353.25;;;-1.56;83.42
70302;BME280;57706;56.326;43.882;2023-01-28T00:27:14;101356.34;;;-1.48;82.53
70302;BME280;57706;56.326;43.882;2023-01-28T00:29:40;101356.50;;;-1.51;82.50
70302;BME280;57706;56.326;43.882;2023-01-28T00:32:06;101352.88;;;-1.47;82.45
70302;BME280;57706;56.326;43.882;2023-01-28T00:34:32;101352.22;;;-1.52;82.63
70302;BME280;57706;56.326;43.882;2023-01-28T00:36:57;101356.34;;;-1.48;82.82
70302;BME280;57706;56.326;43.882;2023-01-28T00:39:24;101356.25;;;-1.45;82.53
70302;BME280;57706;56.326;43.882;2023-01-28T00:41:51;101358.03;;;-1.47;81.94
70302;BME280;57706;56.326;43.882;2023-01-28T00:44:18;101359.47;;;-1.40;82.60
70302;BME280;57706;56.326;43.882;2023-01-28T00:46:44;101353.94;;;-1.30;82.16
70302;BME280;57706;56.326;43.882;2023-01-28T00:49:10;101357.31;;;-1.28;81.85
70302;BME280;57706;56.326;43.882;2023-01-28T00:51:36;101358.09;;;-1.26;81.86
70302;BME280;57706;56.326;43.882;2023-01-28T00:54:02;101353.56;;;-1.21;81.80
70302;BME280;57706;56.326;43.882;2023-01-28T00:56:47;101356.03;;;-1.18;82.06
70302;BME280;57706;56.326;43.882;2023-01-28T00:59:13;101357.72;;;-1.17;81.37
70302;BME280;57706;56.326;43.882;2023-01-28T01:01:39;101354.19;;;-1.14;81.83
70302;BME280;57706;56.326;43.882;2023-01-28T01:04:05;101360.78;;;-1.07;81.83
70302;BME280;57706;56.326;43.882;2023-01-28T01:06:34;101359.09;;;-1.08;81.37
70302;BME280;57706;56.326;43.882;2023-01-28T01:09:02;101362.44;;;-1.06;80.92
70302;BME280;57706;56.326;43.882;2023-01-28T01:11:28;101365.75;;;-1.02;81.20
70302;BME280;57706;56.326;43.882;2023-01-28T01:13:57;101368.03;;;-0.96;81.26
70302;BME280;57706;56.326;43.882;2023-01-28T01:16:28;101358.38;;;-0.91;81.18
70302;BME280;57706;56.326;43.882;2023-01-28T01:18:55;101362.53;;;-0.87;80.82
70302;BME280;57706;56.326;43.882;2023-01-28T01:21:24;101367.03;;;-0.92;80.58
70302;BME280;57706;56.326;43.882;2023-01-28T01:23:51;101361.91;;;-0.93;80.29
70302;BME280;57706;56.326;43.882;2023-01-28T01:26:17;101361.72;;;-0.89;80.68
70302;BME280;57706;56.326;43.882;2023-01-28T01:29:01;101359.16;;;-0.89;80.03
70302;BME280;57706;56.326;43.882;2023-01-28T01:31:27;101360.81;;;-0.88;80.17
70302;BME280;57706;56.326;43.882;2023-01-28T01:33:53;101359.03;;;-0.86;80.40
70302;BME280;57706;56.326;43.882;2023-01-28T01:36:19;101360.50;;;-0.80;80.66
70302;BME280;57706;56.326;43.882;2023-01-28T01:38:47;101358.66;;;-0.76;80.25
70302;BME280;57706;56.326;43.882;2023-01-28T01:41:31;101369.03;;;-0.78;80.06
70302;BME280;57706;56.326;43.882;2023-01-28T01:43:59;101367.09;;;-0.73;80.12
70302;BME280;57706;56.326;43.882;2023-01-28T01:46:39;101370.66;;;-0.75;79.83
70302;BME280;57706;56.326;43.882;2023-01-28T01:51:46;101384.06;;;-0.67;79.49
70302;BME280;57706;56.326;43.882;2023-01-28T01:54:13;101374.66;;;-0.68;79.78
70302;BME280;57706;56.326;43.882;2023-01-28T01:56:42;101379.81;;;-0.68;79.06
70302;BME280;57706;56.326;43.882;2023-01-28T01:59:11;101377.47;;;-0.74;78.96
70302;BME280;57706;56.326;43.882;2023-01-28T02:01:38;101387.66;;;-0.71;79.19
70302;BME280;57706;56.326;43.882;2023-01-28T02:04:09;101384.97;;;-0.68;79.41
70302;BME280;57706;56.326;43.882;2023-01-28T02:06:38;101390.91;;;-0.66;79.44
70302;BME280;57706;56.326;43.882;2023-01-28T02:09:23;101387.66;;;-0.71;79.02
70302;BME280;57706;56.326;43.882;2023-01-28T02:12:00;101382.50;;;-0.71;79.28
70302;BME280;57706;56.326;43.882;2023-01-28T02:14:30;101382.41;;;-0.68;78.77
70302;BME280;57706;56.326;43.882;2023-01-28T02:17:19;101396.22;;;-0.69;79.16
70302;BME280;57706;56.326;43.882;2023-01-28T02:19:59;101393.56;;;-0.67;78.93
70302;BME280;57706;56.326;43.882;2023-01-28T02:30:20;101402.16;;;-0.67;78.16
70302;BME280;57706;56.326;43.882;2023-01-28T02:35:36;101396.97;;;-0.88;78.69
70302;BME280;57706;56.326;43.882;2023-01-28T02:38:28;101399.19;;;-0.78;79.00
70302;BME280;57706;56.326;43.882;2023-01-28T02:41:04;101407.69;;;-0.76;78.10
70302;BME280;57706;56.326;43.882;2023-01-28T02:43:51;101404.19;;;-0.96;77.44
70302;BME280;57706;56.326;43.882;2023-01-28T02:49:39;101410.47;;;-1.24;78.25
70302;BME280;57706;56.326;43.882;2023-01-28T02:58:15;101414.78;;;-1.02;78.82
70302;BME280;57706;56.326;43.882;2023-01-28T03:01:17;101416.25;;;-0.97;78.32
70302;BME280;57706;56.326;43.882;2023-01-28T03:04:03;101417.75;;;-0.91;77.88
70302;BME280;57706;56.326;43.882;2023-01-28T03:06:38;101415.94;;;-0.89;78.07
70302;BME280;57706;56.326;43.882;2023-01-28T03:09:07;101421.09;;;-0.89;77.67
70302;BME280;57706;56.326;43.882;2023-01-28T03:12:08;101425.09;;;-0.81;77.45
70302;BME280;57706;56.326;43.882;2023-01-28T03:18:20;101424.34;;;-0.84;77.32
70302;BME280;57706;56.326;43.882;2023-01-28T03:21:41;101427.84;;;-0.85;77.32
70302;BME280;57706;56.326;43.882;2023-01-28T03:24:34;101424.06;;;-0.98;76.42
70302;BME280;57706;56.326;43.882;2023-01-28T03:27:32;101433.25;;;-1.13;77.63
70302;BME280;57706;56.326;43.882;2023-01-28T03:30:44;101434.34;;;-1.19;77.06
70302;BME280;57706;56.326;43.882;2023-01-28T03:33:39;101428.28;;;-1.18;77.60
70302;BME280;57706;56.326;43.882;2023-01-28T03:36:25;101426.72;;;-1.22;77.03
70302;BME280;57706;56.326;43.882;2023-01-28T03:39:26;101419.09;;;-1.25;77.16
70302;BME280;57706;56.326;43.882;2023-01-28T03:42:04;101419.81;;;-1.21;77.74
70302;BME280;57706;56.326;43.882;2023-01-28T03:44:49;101430.00;;;-1.41;77.48
70302;BME280;57706;56.326;43.882;2023-01-28T03:47:24;101423.03;;;-1.39;77.28
70302;BME280;57706;56.326;43.882;2023-01-28T03:50:09;101419.56;;;-1.38;77.41
70302;BME280;57706;56.326;43.882;2023-01-28T03:52:44;101422.44;;;-1.45;77.42
70302;BME280;57706;56.326;43.882;2023-01-28T03:55:21;101437.94;;;-1.45;77.64
70302;BME280;57706;56.326;43.882;2023-01-28T03:57:50;101435.91;;;-1.37;77.49
70302;BME280;57706;56.326;43.882;2023-01-28T04:00:17;101442.69;;;-1.34;77.06
70302;BME280;57706;56.326;43.882;2023-01-28T04:02:43;101442.13;;;-1.43;77.15
70302;BME280;57706;56.326;43.882;2023-01-28T04:05:13;101441.78;;;-1.33;76.54
70302;BME280;57706;56.326;43.882;2023-01-28T04:07:46;101442.50;;;-1.30;76.75
70302;BME280;57706;56.326;43.882;2023-01-28T04:10:17;101447.88;;;-1.58;76.70
70302;BME280;57706;56.326;43.882;2023-01-28T04:12:52;101451.41;;;-1.39;77.00
70302;BME280;57706;56.326;43.882;2023-01-28T04:15:19;101446.50;;;-1.45;76.21
70302;BME280;57706;56.326;43.882;2023-01-28T04:17:47;101446.56;;;-1.46;76.32
70302;BME280;57706;56.326;43.882;2023-01-28T04:20:39;101452.09;;;-1.33;76.20
70302;BME280;57706;56.326;43.882;2023-01-28T04:23:06;101454.31;;;-1.24;75.41
70302;BME280;57706;56.326;43.882;2023-01-28T04:25:35;101445.63;;;-1.21;75.10
70302;BME280;57706;56.326;43.882;2023-01-28T04:28:20;101457.38;;;-1.36;74.41
70302;BME280;57706;56.326;43.882;2023-01-28T04:30:47;101454.50;;;-1.29;74.90
70302;BME280;57706;56.326;43.882;2023-01-28T04:33:32;101457.13;;;-1.30;74.32
70302;BME280;57706;56.326;43.882;2023-01-28T04:36:09;101457.97;;;-1.30;74.31
70302;BME280;57706;56.326;43.882;2023-01-28T04:38:35;101465.63;;;-1.50;74.78
70302;BME280;57706;56.326;43.882;2023-01-28T04:41:21;101470.63;;;-1.70;75.63
70302;BME280;57706;56.326;43.882;2023-01-28T04:43:47;101467.97;;;-1.44;75.58
70302;BME280;57706;56.326;43.882;2023-01-28T04:46:32;101469.13;;;-1.29;74.76
70302;BME280;57706;56.326;43.882;2023-01-28T04:49:17;101470.31;;;-1.38;74.05
70302;BME280;57706;56.326;43.882;2023-01-28T04:51:45;101467.38;;;-1.29;74.44
70302;BME280;57706;56.326;43.882;2023-01-28T04:54:14;101473.41;;;-1.28;74.38
70302;BME280;57706;56.326;43.882;2023-01-28T04:56:40;101475.34;;;-1.35;73.66
70302;BME280;57706;56.326;43.882;2023-01-28T04:59:24;101473.72;;;-1.38;73.60
70302;BME280;57706;56.326;43.882;2023-01-28T05:01:50;101484.59;;;-1.29;73.85
70302;BME280;57706;56.326;43.882;2023-01-28T05:04:17;101481.16;;;-1.28;73.38
70302;BME280;57706;56.326;43.882;2023-01-28T05:06:43;101481.97;;;-1.28;73.21
70302;BME280;57706;56.326;43.882;2023-01-28T05:09:13;101482.69;;;-1.24;72.84
70302;BME280;57706;56.326;43.882;2023-01-28T05:11:39;101484.28;;;-1.20;72.89
70302;BME280;57706;56.326;43.882;2023-01-28T05:14:06;101479.88;;;-1.18;72.46
70302;BME280;57706;56.326;43.882;2023-01-28T05:16:58;101487.50;;;-1.15;71.49
70302;BME280;57706;56.326;43.882;2023-01-28T05:19:42;101482.34;;;-1.15;71.81
70302;BME280;57706;56.326;43.882;2023-01-28T05:22:15;101492.56;;;-1.12;71.44
70302;BME280;57706;56.326;43.882;2023-01-28T05:24:47;101503.66;;;-1.09;71.25
70302;BME280;57706;56.326;43.882;2023-01-28T05:27:31;101496.28;;;-1.19;70.97
70302;BME280;57706;56.326;43.882;2023-01-28T05:29:58;101496.28;;;-1.19;70.99
70302;BME280;57706;56.326;43.882;2023-01-28T05:32:24;101497.81;;;-1.15;70.98
70302;BME280;57706;56.326;43.882;2023-01-28T05:34:50;101501.78;;;-1.28;70.62
70302;BME280;57706;56.326;43.882;2023-01-28T05:37:16;101501.88;;;-1.31;70.88
70302;BME280;57706;56.326;43.882;2023-01-28T05:39:43;101501.88;;;-1.31;71.02
70302;BME280;57706;56.326;43.882;2023-01-28T05:42:09;101505.59;;;-1.39;71.00
70302;BME280;57706;56.326;43.882;2023-01-28T05:44:40;101512.66;;;-1.44;70.57
70302;BME280;57706;56.326;43.882;2023-01-28T05:47:22;101517.81;;;-1.44;71.33
70302;BME280;57706;56.326;43.882;2023-01-28T05:49:58;101511.72;;;-1.41;70.66
70302;BME280;57706;56.326;43.882;2023-01-28T05:52:53;101527.28;;;-1.44;70.31
70302;BME280;57706;56.326;43.882;2023-01-28T05:55:26;101524.88;;;-1.49;71.73
70302;BME280;57706;56.326;43.882;2023-01-28T05:57:52;101521.53;;;-1.27;71.09
70302;BME280;57706;56.326;43.882;2023-01-28T06:00:21;101515.22;;;-1.20;70.26
70302;BME280;57706;56.326;43.882;2023-01-28T06:02:49;101511.84;;;-1.22;70.24
70302;BME280;57706;56.326;43.882;2023-01-28T06:05:15;101517.00;;;-1.22;70.17
70302;BME280;57706;56.326;43.882;2023-01-28T06:07:46;101522.16;;;-1.22;69.94
70302;BME280;57706;56.326;43.882;2023-01-28T06:10:13;101513.53;;;-1.21;69.88
70302;BME280;57706;56.326;43.882;2023-01-28T06:12:39;101520.81;;;-1.08;69.93
70302;BME280;57706;56.326;43.882;2023-01-28T06:15:23;101514.38;;;-0.98;69.67
70302;BME280;57706;56.326;43.882;2023-01-28T06:18:08;101522.66;;;-0.90;69.50
70302;BME280;57706;56.326;43.882;2023-01-28T06:20:34;101525.19;;;-1.11;69.36
70302;BME280;57706;56.326;43.882;2023-01-28T06:23:00;101527.41;;;-1.01;70.00
70302;BME280;57706;56.326;43.882;2023-01-28T06:25:26;101526.16;;;-0.91;70.20
70302;BME280;57706;56.326;43.882;2023-01-28T06:27:52;101533.22;;;-0.96;68.97
70302;BME280;57706;56.326;43.882;2023-01-28T06:30:19;101536.53;;;-1.15;70.00
70302;BME280;57706;56.326;43.882;2023-01-28T06:32:44;101545.50;;;-1.01;70.44
70302;BME280;57706;56.326;43.882;2023-01-28T06:35:10;101544.81;;;-1.06;70.29
70302;BME280;57706;56.326;43.882;2023-01-28T06:37:36;101547.88;;;-1.19;70.15
70302;BME280;57706;56.326;43.882;2023-01-28T06:40:02;101541.59;;;-1.12;70.76
70302;BME280;57706;56.326;43.882;2023-01-28T06:42:28;101553.31;;;-1.04;69.83
70302;BME280;57706;56.326;43.882;2023-01-28T06:44:54;101548.13;;;-1.03;69.29
70302;BME280;57706;56.326;43.882;2023-01-28T06:47:20;101559.31;;;-1.26;70.16
70302;BME280;57706;56.326;43.882;2023-01-28T06:49:46;101561.00;;;-1.25;69.95
70302;BME280;57706;56.326;43.882;2023-01-28T06:52:11;101549.56;;;-1.18;70.04
70302;BME280;57706;56.326;43.882;2023-01-28T06:54:37;101554.22;;;-1.05;69.22
70302;BME280;57706;56.326;43.882;2023-01-28T06:57:03;101559.16;;;-0.99;69.75
70302;BME280;57706;56.326;43.882;2023-01-28T06:59:29;101562.66;;;-1.00;69.57
70302;BME280;57706;56.326;43.882;2023-01-28T07:01:55;101558.56;;;-1.06;68.72
70302;BME280;57706;56.326;43.882;2023-01-28T07:04:20;101562.66;;;-1.00;69.63
70302;BME280;57706;56.326;43.882;2023-01-28T07:07:04;101560.63;;;-0.92;69.26
70302;BME280;57706;56.326;43.882;2023-01-28T07:09:30;101563.25;;;-0.93;68.81
70302;BME280;57706;56.326;43.882;2023-01-28T07:12:14;101570.13;;;-0.70;68.25
70302;BME280;57706;56.326;43.882;2023-01-28T07:14:40;101568.22;;;-0.89;68.20
70302;BME280;57706;56.326;43.882;2023-01-28T07:17:05;101577.16;;;-1.20;69.42
70302;BME280;57706;56.326;43.882;2023-01-28T07:19:31;101578.34;;;-1.06;68.85
70302;BME280;57706;56.326;43.882;2023-01-28T07:21:57;101582.56;;;-1.04;68.66
70302;BME280;57706;56.326;43.882;2023-01-28T07:24:25;101572.84;;;-0.97;68.30
70302;BME280;57706;56.326;43.882;2023-01-28T07:26:51;101576.41;;;-0.77;68.37
70302;BME280;57706;56.326;43.882;2023-01-28T07:29:17;101581.75;;;-0.60;67.49
70302;BME280;57706;56.326;43.882;2023-01-28T07:31:43;101579.06;;;-0.57;66.55
70302;BME280;57706;56.326;43.882;2023-01-28T07:34:09;101580.78;;;-0.35;66.58
70302;BME280;57706;56.326;43.882;2023-01-28T07:36:34;101575.56;;;-0.33;66.40
70302;BME280;57706;56.326;43.882;2023-01-28T07:39:19;101583.00;;;-0.25;66.07
70302;BME280;57706;56.326;43.882;2023-01-28T07:41:44;101582.69;;;-0.40;66.45
70302;BME280;57706;56.326;43.882;2023-01-28T07:44:29;101585.34;;;-0.19;66.27
70302;BME280;57706;56.326;43.882;2023-01-28T07:46:54;101593.72;;;-0.14;65.89
70302;BME280;57706;56.326;43.882;2023-01-28T07:49:20;101590.13;;;-0.10;66.00
70302;BME280;57706;56.326;43.882;2023-01-28T07:51:46;101594.56;;;-0.13;66.44
70302;BME280;57706;56.326;43.882;2023-01-28T07:54:13;101598.78;;;-0.11;66.01
70302;BME280;57706;56.326;43.882;2023-01-28T07:56:39;101598.16;;;0.05;65.73
70302;BME280;57706;56.326;43.882;2023-01-28T07:59:04;101602.72;;;-0.02;66.02
70302;BME280;57706;56.326;43.882;2023-01-28T08:01:30;101606.16;;;-0.02;65.69
70302;BME280;57706;56.326;43.882;2023-01-28T08:03:56;101599.97;;;-0.20;64.90
70302;BME280;57706;56.326;43.882;2023-01-28T08:06:22;101604.69;;;-0.52;66.52
70302;BME280;57706;56.326;43.882;2023-01-28T08:08:47;101610.09;;;-0.36;67.09
70302;BME280;57706;56.326;43.882;2023-01-28T08:11:13;101610.47;;;-0.23;66.22
70302;BME280;57706;56.326;43.882;2023-01-28T08:13:39;101611.91;;;-0.16;65.95
70302;BME280;57706;56.326;43.882;2023-01-28T08:16:05;101603.63;;;-0.24;65.96
70302;BME280;57706;56.326;43.882;2023-01-28T08:18:31;101597.72;;;-0.28;66.13
70302;BME280;57706;56.326;43.882;2023-01-28T08:20:58;101600.75;;;-0.61;66.33
70302;BME280;57706;56.326;43.882;2023-01-28T08:23:25;101600.97;;;-0.45;66.63
70302;BME280;57706;56.326;43.882;2023-01-28T08:25:52;101598.88;;;-0.35;66.58
70302;BME280;57706;56.326;43.882;2023-01-28T08:28:18;101591.34;;;-0.41;65.96
70302;BME280;57706;56.326;43.882;2023-01-28T08:30:45;101589.84;;;-0.24;66.34
70302;BME280;57706;56.326;43.882;2023-01-28T08:33:12;101592.72;;;-0.54;66.60
70302;BME280;57706;56.326;43.882;2023-01-28T08:35:39;101594.47;;;-0.33;67.07
70302;BME280;57706;56.326;43.882;2023-01-28T08:38:06;101591.22;;;-0.16;66.68
70302;BME280;57706;56.326;43.882;2023-01-28T08:40:32;101593.34;;;-0.48;66.33
70302;BME280;57706;56.326;43.882;2023-01-28T08:42:58;101593.28;;;-0.24;66.27
70302;BME280;57706;56.326;43.882;2023-01-28T08:45:25;101596.63;;;-0.22;65.38
70302;BME280;57706;56.326;43.882;2023-01-28T08:47:56;101588.81;;;-0.20;65.30
70302;BME280;57706;56.326;43.882;2023-01-28T08:50:25;101595.50;;;-0.37;65.47
70302;BME280;57706;56.326;43.882;2023-01-28T08:52:59;101590.75;;;-0.25;65.19
70302;BME280;57706;56.326;43.882;2023-01-28T08:55:27;101590.75;;;-0.25;64.40
70302;BME280;57706;56.326;43.882;2023-01-28T08:57:52;101580.22;;;-0.21;64.95
70302;BME280;57706;56.326;43.882;2023-01-28T09:00:18;101593.72;;;-0.14;64.38
70302;BME280;57706;56.326;43.882;2023-01-28T09:02:45;101588.81;;;-0.20;64.07
70302;BME280;57706;56.326;43.882;2023-01-28T09:05:11;101586.88;;;-0.15;64.74
70302;BME280;57706;56.326;43.882;2023-01-28T09:07:37;101577.16;;;-0.31;63.80
70302;BME280;57706;56.326;43.882;2023-01-28T09:10:05;101588.97;;;-0.68;65.39
70302;BME280;57706;56.326;43.882;2023-01-28T09:12:31;101583.94;;;-0.49;65.45
70302;BME280;57706;56.326;43.882;2023-01-28T09:14:57;101579.22;;;-0.39;64.32
70302;BME280;57706;56.326;43.882;2023-01-28T09:17:23;101587.69;;;-0.58;64.34
70302;BME280;57706;56.326;43.882;2023-01-28T09:19:49;101583.06;;;-0.49;65.29
70302;BME280;57706;56.326;43.882;2023-01-28T09:22:15;101588.41;;;-0.32;64.32
70302;BME280;57706;56.326;43.882;2023-01-28T09:24:42;101587.34;;;-0.48;64.67
70302;BME280;57706;56.326;43.882;2023-01-28T09:27:07;101588.81;;;-0.43;64.51
70302;BME280;57706;56.326;43.882;2023-01-28T09:29:34;101584.38;;;-0.39;64.14
70302;BME280;57706;56.326;43.882;2023-01-28T09:32:00;101582.22;;;-0.28;64.51
70302;BME280;57706;56.326;43.882;2023-01-28T09:34:26;101583.31;;;-0.33;63.89
70302;BME280;57706;56.326;43.882;2023-01-28T09:36:51;101588.34;;;-0.30;63.09
70302;BME280;57706;56.326;43.882;2023-01-28T09:39:17;101579.22;;;-0.39;63.43
70302;BME280;57706;56.326;43.882;2023-01-28T09:47:15;101586.44;;;-0.47;63.72
70302;BME280;57706;56.326;43.882;2023-01-28T09:49:47;101586.78;;;-0.57;64.24
70302;BME280;57706;56.326;43.882;2023-01-28T09:52:17;101575.94;;;-0.65;64.40
70302;BME280;57706;56.326;43.882;2023-01-28T09:54:46;101586.16;;;-0.62;64.20
70302;BME280;57706;56.326;43.882;2023-01-28T09:57:47;101584.72;;;-0.69;64.10
70302;BME280;57706;56.326;43.882;2023-01-28T10:00:22;101593.97;;;-1.09;65.07
70302;BME280;57706;56.326;43.882;2023-01-28T10:05:30;101584.53;;;-0.87;65.26
70302;BME280;57706;56.326;43.882;2023-01-28T10:08:15;101579.81;;;-0.77;64.85
70302;BME280;57706;56.326;43.882;2023-01-28T10:10:49;101576.34;;;-0.76;64.46
70302;BME280;57706;56.326;43.882;2023-01-28T10:16:04;101577.59;;;-0.86;64.39
70302;BME280;57706;56.326;43.882;2023-01-28T10:18:51;101574.66;;;-0.99;64.82
70302;BME280;57706;56.326;43.882;2023-01-28T10:21:26;101577.06;;;-0.94;64.82
70302;BME280;57706;56.326;43.882;2023-01-28T10:24:59;101578.59;;;-1.13;64.63
70302;BME280;57706;56.326;43.882;2023-01-28T10:26:53;101565.63;;;-1.11;64.98
70302;BME280;57706;56.326;43.882;2023-01-28T10:29:23;101568.03;;;-1.06;65.13
70302;BME280;57706;56.326;43.882;2023-01-28T10:31:55;101566.84;;;-0.98;64.85
70302;BME280;57706;56.326;43.882;2023-01-28T10:34:24;101564.09;;;-0.93;64.65
70302;BME280;57706;56.326;43.882;2023-01-28T10:36:50;101565.66;;;-0.89;64.24
70302;BME280;57706;56.326;43.882;2023-01-28T10:39:20;101559.75;;;-0.92;64.38
70302;BME280;57706;56.326;43.882;2023-01-28T10:41:47;101553.88;;;-0.96;64.80
70302;BME280;57706;56.326;43.882;2023-01-28T10:44:15;101555.81;;;-1.01;64.17
70302;BME280;57706;56.326;43.882;2023-01-28T10:46:44;101557.84;;;-1.09;64.21
70302;BME280;57706;56.326;43.882;2023-01-28T10:49:14;101550.75;;;-1.04;64.88
70302;BME280;57706;56.326;43.882;2023-01-28T10:51:42;101554.91;;;-1.00;64.51
70302;BME280;57706;56.326;43.882;2023-01-28T10:54:23;101554.22;;;-1.05;64.45
70302;BME280;57706;56.326;43.882;2023-01-28T10:56:52;101547.34;;;-1.05;65.19
70302;BME280;57706;56.326;43.882;2023-01-28T10:59:38;101550.88;;;-1.07;64.52
70302;BME280;57706;56.326;43.882;2023-01-28T11:02:33;101545.72;;;-1.07;63.95
70302;BME280;57706;56.326;43.882;2023-01-28T11:07:30;101551.78;;;-1.32;64.28
70302;BME280;57706;56.326;43.882;2023-01-28T11:09:56;101544.72;;;-1.27;63.70
70302;BME280;57706;56.326;43.882;2023-01-28T11:12:25;101551.09;;;-1.38;64.38
70302;BME280;57706;56.326;43.882;2023-01-28T11:15:03;101542.66;;;-1.41;64.40
70302;BME280;57706;56.326;43.882;2023-01-28T11:17:35;101545.13;;;-1.62;63.75
70302;BME280;57706;56.326;43.882;2023-01-28T11:20:18;101547.81;;;-1.65;64.70
70302;BME280;57706;56.326;43.882;2023-01-28T11:22:45;101543.38;;;-1.38;63.82
70302;BME280;57706;56.326;43.882;2023-01-28T11:25:19;101544.25;;;-1.15;63.34
70302;BME280;57706;56.326;43.882;2023-01-28T11:27:49;101540.56;;;-1.07;63.05
70302;BME280;57706;56.326;43.882;2023-01-28T11:30:36;101550.75;;;-1.04;62.26
70302;BME280;57706;56.326;43.882;2023-01-28T11:33:30;101552.41;;;-1.26;62.38
70302;BME280;57706;56.326;43.882;2023-01-28T11:36:19;101552.69;;;-1.33;62.50
70302;BME280;57706;56.326;43.882;2023-01-28T11:38:53;101549.84;;;-1.49;63.49
70302;BME280;57706;56.326;43.882;2023-01-28T11:41:37;101557.91;;;-1.35;64.19
70302;BME280;57706;56.326;43.882;2023-01-28T12:08:58;101547.88;;;-1.19;63.48
70302;BME280;57706;56.326;43.882;2023-01-28T12:25:20;101538.31;;;-1.64;64.84
70302;BME280;57706;56.326;43.882;2023-01-28T12:27:57;101527.91;;;-1.61;64.23
70302;BME280;57706;56.326;43.882;2023-01-28T12:30:56;101533.53;;;-1.75;64.64
70302;BME280;57706;56.326;43.882;2023-01-28T12:36:27;101535.13;;;-1.97;65.33
70302;BME280;57706;56.326;43.882;2023-01-28T12:41:50;101532.72;;;-2.01;65.56
70302;BME280;57706;56.326;43.882;2023-01-28T12:44:29;101532.41;;;-1.92;64.93
70302;BME280;57706;56.326;43.882;2023-01-28T12:47:05;101528.09;;;-1.91;65.06
70302;BME280;57706;56.326;43.882;2023-01-28T12:49:55;101526.41;;;-1.92;65.28
70302;BME280;57706;56.326;43.882;2023-01-28T12:55:17;101529.09;;;-1.96;64.98
70302;BME280;57706;56.326;43.882;2023-01-28T12:57:46;101527.69;;;-2.04;65.91
70302;BME280;57706;56.326;43.882;2023-01-28T13:00:33;101523.28;;;-2.01;66.25
70302;BME280;57706;56.326;43.882;2023-01-28T13:03:24;101522.50;;;-2.03;65.80
70302;BME280;57706;56.326;43.882;2023-01-28T13:05:56;101524.22;;;-2.03;65.65
70302;BME280;57706;56.326;43.882;2023-01-28T13:08:26;101523.28;;;-2.01;65.96
70302;BME280;57706;56.326;43.882;2023-01-28T13:10:52;101526.75;;;-2.02;66.05
70302;BME280;57706;56.326;43.882;2023-01-28T13:13:36;101528.44;;;-2.01;65.90
70302;BME280;57706;56.326;43.882;2023-01-28T13:16:04;101524.94;;;-2.00;65.67
70302;BME280;57706;56.326;43.882;2023-01-28T13:21:16;101518.00;;;-1.98;65.77
70302;BME280;57706;56.326;43.882;2023-01-28T13:26:53;101512.84;;;-1.98;65.98
70302;BME280;57706;56.326;43.882;2023-01-28T13:31:54;101508.94;;;-2.10;65.88
70302;BME280;57706;56.326;43.882;2023-01-28T13:34:41;101508.97;;;-2.35;67.04
70302;BME280;57706;56.326;43.882;2023-01-28T13:37:35;101506.06;;;-2.26;67.02
70302;BME280;57706;56.326;43.882;2023-01-28T13:42:32;101498.16;;;-2.19;67.10
70302;BME280;57706;56.326;43.882;2023-01-28T13:45:19;101496.19;;;-2.13;66.44
70302;BME280;57706;56.326;43.882;2023-01-28T13:47:54;101496.56;;;-2.24;66.45
70302;BME280;57706;56.326;43.882;2023-01-28T13:50:24;101489.50;;;-2.44;66.26
70302;BME280;57706;56.326;43.882;2023-01-28T13:52:58;101492.03;;;-1.91;64.98
70302;BME280;57706;56.326;43.882;2023-01-28T13:55:37;101489.94;;;-2.58;66.40
70302;BME280;57706;56.326;43.882;2023-01-28T14:17:43;101487.19;;;-2.26;66.84
70302;BME280;57706;56.326;43.882;2023-01-28T14:22:48;101483.78;;;-2.54;67.77
70302;BME280;57706;56.326;43.882;2023-01-28T14:25:32;101483.47;;;-2.70;68.11
70302;BME280;57706;56.326;43.882;2023-01-28T14:28:02;101484.03;;;-2.60;68.37
70302;BME280;57706;56.326;43.882;2023-01-28T14:30:45;101486.09;;;-2.44;67.98
70302;BME280;57706;56.326;43.882;2023-01-28T14:33:12;101482.13;;;-2.55;67.31
70302;BME280;57706;56.326;43.882;2023-01-28T14:35:44;101476.66;;;-2.71;67.68
70302;BME280;57706;56.326;43.882;2023-01-28T14:38:15;101485.78;;;-2.62;68.13
70302;BME280;57706;56.326;43.882;2023-01-28T14:40:42;101484.97;;;-2.63;68.03
70302;BME280;57706;56.326;43.882;2023-01-28T14:43:14;101477.94;;;-2.57;67.44
70302;BME280;57706;56.326;43.882;2023-01-28T14:51:09;101470.91;;;-2.27;66.45
70302;BME280;57706;56.326;43.882;2023-01-28T15:02:21;101467.47;;;-2.53;67.69
70302;BME280;57706;56.326;43.882;2023-01-28T15:04:48;101465.78;;;-2.54;67.23
70302;BME280;57706;56.326;43.882;2023-01-28T15:07:19;101456.38;;;-2.55;68.03
70302;BME280;57706;56.326;43.882;2023-01-28T15:09:47;101450.09;;;-2.46;68.14
70302;BME280;57706;56.326;43.882;2023-01-28T15:12:14;101449.88;;;-2.14;66.14
70302;BME280;57706;56.326;43.882;2023-01-28T15:14:42;101449.22;;;-2.46;66.97
70302;BME280;57706;56.326;43.882;2023-01-28T15:17:22;101458.91;;;-2.53;67.56
70302;BME280;57706;56.326;43.882;2023-01-28T15:19:51;101457.66;;;-2.41;67.86